Terminal Aerodrome Forecast
Issued by NWS

Home | Current Version | Previous Version | Text Only | Print | Product List | Glossary On
Versions: 1 2 3 4 5 6 7 8 9 10 11 12 13 14 15 16
000
FTUS46 KSGX 312320
TAFSNA
TAF
KSNA 312320Z 0100/0124 21009KT P6SM SKC
     FM010200 VRB05KT P6SM SCT017
     FM010700 VRB04KT P6SM OVC017
     FM011700 VRB06KT P6SM SCT020
     FM011900 23010KT P6SM FEW020=

USA.gov is the U.S. government's official web portal to all federal, state and local government web resources and services.